createdAt,value
2022-12-25T00:01:43.966Z,12.97
2022-12-25T00:04:34.953Z,12.94
2022-12-25T00:07:20.625Z,13.01
2022-12-25T00:10:31.840Z,13.03
2022-12-25T00:13:07.886Z,13.03
2022-12-25T00:19:04.667Z,13.04
2022-12-25T00:21:41.134Z,13.09
2022-12-25T00:24:16.034Z,13.08
2022-12-25T00:27:02.309Z,13.10
2022-12-25T00:29:49.872Z,13.10
2022-12-25T00:32:27.880Z,13.07
2022-12-25T00:35:50.357Z,13.08
2022-12-25T00:38:25.974Z,13.01
2022-12-25T00:41:11.908Z,13.08
2022-12-25T00:43:42.173Z,13.12
2022-12-25T00:46:31.477Z,13.07
2022-12-25T00:49:09.696Z,13.13
2022-12-25T00:52:12.800Z,13.12
2022-12-25T00:55:05.992Z,13.02
2022-12-25T00:57:56.111Z,13.04
2022-12-25T01:00:42.519Z,13.11
2022-12-25T01:04:25.165Z,13.07
2022-12-25T01:07:17.207Z,12.97
2022-12-25T01:10:12.000Z,13.03
2022-12-25T01:13:10.757Z,13.02
2022-12-25T01:16:25.855Z,13.05
2022-12-25T01:19:08.410Z,13.09
2022-12-25T01:22:28.350Z,13.06
2022-12-25T01:28:33.319Z,12.98
2022-12-25T01:31:20.920Z,13.02
2022-12-25T01:34:49.268Z,12.99
2022-12-25T01:37:46.003Z,13.06
2022-12-25T01:40:42.141Z,13.01
2022-12-25T01:43:26.408Z,13.03
2022-12-25T01:46:30.572Z,12.95
2022-12-25T01:49:23.381Z,13.03
2022-12-25T01:55:34.531Z,13.03
2022-12-25T01:58:44.907Z,13.01
2022-12-25T02:01:45.118Z,12.96
2022-12-25T02:04:57.498Z,12.93
2022-12-25T02:11:11.901Z,12.88
2022-12-25T02:14:20.022Z,12.93
2022-12-25T02:17:11.567Z,12.98
2022-12-25T02:20:25.526Z,12.97
2022-12-25T02:23:25.337Z,13.01
2022-12-25T02:26:30.663Z,13.03
2022-12-25T02:29:48.187Z,12.91
2022-12-25T02:32:51.252Z,12.97
2022-12-25T02:35:25.177Z,12.96
2022-12-25T02:37:57.529Z,12.97
2022-12-25T02:40:53.183Z,12.95
2022-12-25T02:44:04.671Z,13.00
2022-12-25T02:47:22.368Z,13.05
2022-12-25T02:50:40.401Z,13.03
2022-12-25T02:53:31.179Z,13.06
2022-12-25T02:56:27.415Z,13.09
2022-12-25T02:59:18.187Z,13.14
2022-12-25T03:02:17.771Z,13.15
2022-12-25T03:05:17.786Z,13.09
2022-12-25T03:07:54.071Z,13.04
2022-12-25T03:14:19.272Z,13.05
2022-12-25T03:17:08.873Z,13.09
2022-12-25T03:20:10.692Z,13.13
2022-12-25T03:23:05.461Z,13.12
2022-12-25T03:26:07.259Z,13.05
2022-12-25T03:28:47.093Z,13.10
2022-12-25T03:31:24.922Z,13.03
2022-12-25T03:34:36.381Z,13.06
2022-12-25T03:38:03.910Z,13.05
2022-12-25T03:41:21.987Z,13.11
2022-12-25T03:44:38.850Z,13.09
2022-12-25T03:47:59.669Z,13.06
2022-12-25T03:51:04.148Z,13.04
2022-12-25T03:53:58.559Z,13.07
2022-12-25T03:56:51.167Z,13.08
2022-12-25T03:59:42.350Z,13.11
2022-12-25T04:02:34.629Z,13.09
2022-12-25T04:06:17.469Z,12.93
2022-12-25T04:20:23.584Z,12.80
2022-12-25T04:24:35.251Z,12.71
2022-12-25T04:31:12.067Z,12.56
2022-12-25T10:43:59.344Z,12.81
2022-12-25T10:47:31.899Z,12.84
2022-12-25T10:50:33.976Z,12.88
2022-12-25T10:54:25.828Z,12.91
2022-12-25T10:57:26.424Z,12.93
2022-12-25T11:04:01.530Z,12.98
2022-12-25T11:06:33.471Z,13.02
2022-12-25T11:09:03.709Z,13.06
2022-12-25T11:11:32.303Z,13.14
2022-12-25T11:14:03.338Z,13.21
2022-12-25T11:16:33.990Z,13.23
2022-12-25T11:19:04.767Z,13.29
2022-12-25T11:21:35.103Z,13.30
2022-12-25T11:24:05.940Z,13.34
2022-12-25T11:26:47.902Z,13.32
2022-12-25T11:29:25.886Z,13.30
2022-12-25T11:31:57.352Z,13.29
2022-12-25T11:34:32.385Z,13.25
2022-12-25T11:37:02.970Z,13.20
2022-12-25T11:39:32.945Z,13.22
2022-12-25T11:42:06.971Z,13.23
2022-12-25T11:44:42.693Z,13.26
2022-12-25T11:47:18.693Z,13.32
2022-12-25T11:49:58.742Z,13.32
2022-12-25T11:52:33.107Z,13.36
2022-12-25T11:55:06.661Z,13.40
2022-12-25T11:57:38.054Z,13.32
2022-12-25T12:00:09.656Z,13.30
2022-12-25T12:02:45.044Z,13.32
2022-12-25T12:05:21.446Z,13.26
2022-12-25T12:07:58.632Z,13.23
2022-12-25T12:10:38.972Z,13.21
2022-12-25T12:13:21.705Z,13.21
2022-12-25T12:15:51.978Z,13.19
2022-12-25T12:18:23.370Z,13.21
2022-12-25T12:21:10.154Z,13.14
2022-12-25T12:23:51.695Z,13.14
2022-12-25T12:26:21.782Z,13.14
2022-12-25T12:28:52.573Z,13.16
2022-12-25T12:31:21.083Z,13.18
2022-12-25T12:33:54.587Z,13.15
2022-12-25T12:36:35.527Z,13.13
2022-12-25T12:39:06.389Z,13.15
2022-12-25T12:41:46.171Z,13.27
2022-12-25T12:44:18.165Z,13.37
2022-12-25T12:46:55.696Z,13.43
2022-12-25T12:49:28.051Z,13.56
2022-12-25T12:52:08.370Z,13.54
2022-12-25T12:54:54.733Z,13.67
2022-12-25T12:57:27.126Z,13.70
2022-12-25T12:59:55.498Z,13.59
2022-12-25T13:02:52.639Z,13.62
2022-12-25T13:05:34.441Z,13.63
2022-12-25T13:08:18.947Z,13.63
2022-12-25T13:10:50.853Z,13.73
2022-12-25T13:13:24.624Z,13.78
2022-12-25T13:15:53.902Z,13.76
2022-12-25T13:18:22.363Z,13.83
2022-12-25T13:20:56.432Z,13.77
2022-12-25T13:23:32.834Z,13.74
2022-12-25T13:26:03.570Z,13.64
2022-12-25T13:28:33.709Z,13.62
2022-12-25T13:31:08.372Z,13.53
2022-12-25T13:33:36.994Z,13.48
2022-12-25T13:36:06.939Z,13.39
2022-12-25T13:38:36.966Z,13.30
2022-12-25T13:41:19.336Z,13.30
2022-12-25T13:43:49.882Z,13.23
2022-12-25T13:46:26.399Z,13.19
2022-12-25T13:49:00.026Z,13.11
2022-12-25T13:51:30.059Z,13.11
2022-12-25T13:54:07.935Z,13.14
2022-12-25T13:56:36.591Z,13.08
2022-12-25T13:59:20.317Z,13.06
2022-12-25T14:01:51.291Z,13.06
2022-12-25T14:04:29.099Z,13.04
2022-12-25T14:06:57.598Z,13.06
2022-12-25T14:09:27.511Z,13.01
2022-12-25T14:11:58.020Z,13.03
2022-12-25T14:14:27.612Z,12.99
2022-12-25T14:17:00.411Z,13.00
2022-12-25T14:19:30.539Z,12.97
2022-12-25T14:22:04.025Z,13.03
2022-12-25T14:24:36.262Z,13.07
2022-12-25T14:27:07.122Z,13.08
2022-12-25T14:29:39.721Z,13.11
2022-12-25T14:32:12.374Z,13.16
2022-12-25T14:34:40.737Z,13.19
2022-12-25T14:37:17.330Z,13.22
2022-12-25T14:39:55.079Z,13.17
2022-12-25T14:42:25.154Z,13.20
2022-12-25T14:45:05.128Z,13.20
2022-12-25T14:47:40.441Z,13.23
2022-12-25T14:50:16.743Z,13.25
2022-12-25T14:52:46.817Z,13.23
2022-12-25T14:55:22.947Z,13.21
2022-12-25T14:57:54.493Z,13.19
2022-12-25T15:00:26.115Z,13.18
2022-12-25T15:02:57.276Z,13.13
2022-12-25T15:05:34.734Z,13.15
2022-12-25T15:08:21.154Z,13.16
2022-12-25T15:11:01.738Z,13.12
2022-12-25T15:13:32.468Z,13.10
2022-12-25T15:16:05.196Z,13.07
2022-12-25T15:18:38.876Z,13.10
2022-12-25T15:21:08.036Z,13.06
2022-12-25T15:23:36.451Z,13.02
2022-12-25T15:26:06.544Z,13.02
2022-12-25T15:28:34.917Z,13.02
2022-12-25T15:31:03.401Z,12.99
2022-12-25T15:33:33.406Z,13.01
2022-12-25T15:36:01.889Z,12.99
2022-12-25T15:38:36.575Z,12.98
2022-12-25T15:41:06.882Z,13.00
2022-12-25T15:43:42.400Z,12.94
2022-12-25T15:46:11.547Z,12.90
2022-12-25T15:48:39.913Z,12.80
2022-12-25T15:51:08.611Z,12.76
2022-12-25T15:53:36.950Z,12.74
2022-12-25T15:56:07.252Z,12.70
2022-12-25T15:58:35.686Z,12.69
2022-12-25T16:01:04.073Z,12.68
2022-12-25T16:03:32.758Z,12.68
2022-12-25T16:06:01.284Z,12.67
2022-12-25T16:08:29.620Z,12.65
2022-12-25T16:10:57.980Z,12.65
2022-12-25T16:13:27.783Z,12.62
2022-12-25T16:15:56.286Z,12.57
2022-12-25T16:18:25.172Z,12.52
2022-12-25T16:20:54.252Z,12.52
2022-12-25T16:23:23.213Z,12.48
2022-12-25T16:26:04.358Z,12.46
2022-12-25T16:28:45.352Z,12.43
2022-12-25T16:31:19.116Z,12.38
2022-12-25T16:37:47.185Z,12.35
2022-12-25T16:40:23.255Z,12.36
2022-12-25T16:47:21.847Z,12.35
2022-12-25T16:50:26.029Z,12.29
2022-12-25T16:53:56.535Z,12.22
2022-12-25T17:05:36.287Z,11.92
2022-12-25T17:09:06.939Z,11.83
2022-12-25T17:12:43.575Z,11.78
2022-12-25T17:16:21.061Z,11.72
2022-12-25T17:23:49.811Z,11.58
2022-12-25T17:55:27.286Z,11.34
2022-12-25T18:27:34.665Z,11.70
2022-12-25T20:39:18.551Z,11.80
2022-12-25T20:55:42.050Z,11.67
2022-12-25T21:04:07.894Z,11.68
2022-12-25T21:07:32.222Z,11.76
2022-12-25T21:10:54.615Z,11.83
2022-12-25T21:15:37.415Z,11.84
2022-12-25T21:24:27.357Z,11.88
2022-12-25T21:35:47.710Z,11.87
2022-12-25T22:16:26.255Z,11.94
2022-12-25T22:19:13.769Z,11.94
2022-12-25T22:21:42.634Z,11.95
2022-12-25T22:24:11.529Z,11.94
2022-12-25T22:26:44.342Z,11.95
2022-12-25T22:29:13.257Z,11.91
2022-12-25T22:31:46.636Z,11.89
2022-12-25T22:34:16.987Z,11.89
2022-12-25T22:36:45.602Z,11.86
2022-12-25T22:39:14.175Z,11.85
2022-12-25T22:41:44.238Z,11.85
2022-12-25T22:44:17.556Z,11.83
2022-12-25T22:46:46.560Z,11.82
2022-12-25T22:49:16.131Z,11.79
2022-12-25T22:51:44.683Z,11.81
2022-12-25T22:54:14.580Z,11.81
2022-12-25T22:56:46.662Z,11.81
2022-12-25T22:59:17.009Z,11.79
2022-12-25T23:01:46.363Z,11.81
2022-12-25T23:04:14.830Z,11.81
2022-12-25T23:06:44.325Z,11.82
2022-12-25T23:09:22.115Z,11.82
2022-12-25T23:11:54.183Z,11.87
2022-12-25T23:14:39.799Z,11.93
2022-12-25T23:17:31.092Z,11.95
2022-12-25T23:20:17.671Z,11.97
2022-12-25T23:23:04.023Z,12.03
2022-12-25T23:25:50.133Z,12.05
2022-12-25T23:28:40.379Z,11.99
2022-12-25T23:31:09.590Z,12.02
2022-12-25T23:33:38.732Z,12.04
2022-12-25T23:36:07.857Z,12.03
2022-12-25T23:38:36.220Z,12.05
2022-12-25T23:41:04.710Z,11.99
2022-12-25T23:43:34.497Z,11.98
2022-12-25T23:46:03.404Z,11.96
2022-12-25T23:48:31.876Z,11.91
2022-12-25T23:51:04.524Z,11.87
2022-12-25T23:53:33.410Z,11.84
2022-12-25T23:56:02.400Z,11.80
2022-12-25T23:58:31.730Z,11.75
